Time;durP1;ratioP1;P1;durP2;ratioP2;P2;SDS_P1;SDS_P2;PMS_P1;PMS_P2;Temp;Humidity;BMP_temperature;BMP_pressure;BME280_temperature;BME280_humidity;BME280_pressure;Samples;Min_cycle;Max_cycle;Signal;HPM_P1;HPM_P2
2023/08/02 00:00:58;;;;;;;6.03;4.75;;;;;;;22.60;64.62;94185.69;4965891;28;20183;-74
2023/08/02 00:03:23;;;;;;;9.35;4.47;;;;;;;22.76;65.16;94205.75;4956970;28;20265;-74
2023/08/02 00:05:58;;;;;;;6.88;4.55;;;;;;;22.65;64.49;94177.53;4972957;28;20685;-74
2023/08/02 00:08:25;;;;;;;8.88;4.45;;;;;;;22.87;64.77;94212.47;4950097;28;20189;-74
2023/08/02 00:10:51;;;;;;;11.57;6.28;;;;;;;22.78;64.43;94205.44;4952787;28;20217;-74
2023/08/02 00:13:17;;;;;;;10.52;6.10;;;;;;;22.82;64.87;94203.75;4955348;28;20205;-74
2023/08/02 00:15:43;;;;;;;16.83;11.20;;;;;;;22.73;64.86;94189.44;4958855;28;20237;-74
2023/08/02 00:18:09;;;;;;;27.60;18.60;;;;;;;22.75;64.97;94197.97;4952908;28;20661;-74
2023/08/02 00:20:37;;;;;;;10.52;7.20;;;;;;;22.90;65.02;94225.31;4937004;28;20269;-74
2023/08/02 00:23:03;;;;;;;15.23;8.77;;;;;;;22.60;64.98;94174.94;4971064;28;20174;-74
2023/08/02 00:25:29;;;;;;;17.17;9.00;;;;;;;22.79;64.97;94204.34;4949422;28;20184;-74
2023/08/02 00:27:55;;;;;;;12.95;8.15;;;;;;;22.89;64.85;94229.09;4959390;28;20167;-74
2023/08/02 00:30:20;;;;;;;11.55;6.35;;;;;;;22.50;64.63;94157.19;4956828;28;20220;-74
2023/08/02 00:32:47;;;;;;;8.07;4.78;;;;;;;22.73;64.87;94200.97;4950559;29;20650;-74
2023/08/02 00:35:13;;;;;;;13.93;6.22;;;;;;;22.67;65.03;94199.47;4953136;28;20171;-74
2023/08/02 00:37:40;;;;;;;12.10;5.30;;;;;;;22.78;64.82;94226.91;4951634;28;20185;-74
2023/08/02 00:40:06;;;;;;;16.17;6.18;;;;;;;22.63;65.24;94200.38;4965579;28;20657;-74
2023/08/02 00:42:32;;;;;;;9.88;6.32;;;;;;;22.84;65.50;94223.00;4966036;28;20182;-74
2023/08/02 00:44:57;;;;;;;13.20;4.55;;;;;;;22.83;65.01;94226.81;4937114;29;20178;-74
2023/08/02 00:47:25;;;;;;;10.23;5.50;;;;;;;22.84;65.49;94218.44;4943427;28;20238;-74
2023/08/02 00:49:51;;;;;;;10.00;4.25;;;;;;;22.83;65.23;94219.53;4965113;28;20288;-74
2023/08/02 00:52:17;;;;;;;7.75;5.03;;;;;;;22.84;64.93;94223.81;4956812;28;20229;-74
2023/08/02 00:54:42;;;;;;;7.18;4.55;;;;;;;22.85;65.17;94220.03;4952677;28;20171;-74
2023/08/02 00:57:11;;;;;;;6.50;4.30;;;;;;;22.70;65.33;94192.72;4962903;28;20208;-73
2023/08/02 00:59:38;;;;;;;7.75;4.45;;;;;;;22.83;65.18;94210.72;4970356;28;20189;-74
2023/08/02 01:02:06;;;;;;;8.55;4.35;;;;;;;22.75;64.96;94196.09;4971718;28;20737;-74
2023/08/02 01:04:32;;;;;;;12.55;4.40;;;;;;;22.87;65.47;94217.84;4962770;28;20273;-74
2023/08/02 01:07:26;;;;;;;18.52;12.20;;;;;;;22.82;65.19;94217.97;4971458;28;20295;-74
2023/08/02 01:10:19;;;;;;;21.80;9.98;;;;;;;22.78;65.60;94219.66;4957941;28;20698;-74
2023/08/02 01:12:48;;;;;;;23.77;9.93;;;;;;;22.75;66.04;94211.41;4970257;28;20186;-74
2023/08/02 01:15:15;;;;;;;24.42;9.52;;;;;;;22.56;66.24;94196.25;4971547;28;20228;-74
2023/08/02 01:17:43;;;;;;;14.82;8.30;;;;;;;22.53;66.03;94188.00;4970565;28;20231;-74
2023/08/02 01:20:09;;;;;;;13.80;7.65;;;;;;;22.64;66.05;94207.34;4955933;28;20178;-73
2023/08/02 01:22:34;;;;;;;16.05;7.43;;;;;;;22.54;66.08;94192.25;4964094;28;20288;-74
2023/08/02 01:25:00;;;;;;;11.30;8.00;;;;;;;22.66;65.89;94210.53;4967504;28;20184;-74
2023/08/02 01:27:54;;;;;;;19.27;9.60;;;;;;;22.66;65.80;94219.34;4956472;28;20209;-74
2023/08/02 01:30:22;;;;;;;12.05;7.20;;;;;;;22.50;66.12;94189.38;4956837;28;20233;-73
2023/08/02 01:32:49;;;;;;;16.50;7.88;;;;;;;22.23;66.46;94141.16;4961001;28;20183;-74
2023/08/02 01:35:15;;;;;;;17.10;8.32;;;;;;;22.49;66.21;94201.19;4962430;28;20186;-74
2023/08/02 01:37:42;;;;;;;33.55;18.80;;;;;;;22.21;66.64;94172.84;4969727;28;20166;-74
2023/08/02 01:40:09;;;;;;;22.70;10.60;;;;;;;22.33;66.90;94186.53;4965715;28;20178;-74
2023/08/02 01:42:34;;;;;;;16.92;10.20;;;;;;;22.23;67.04;94164.50;4963237;28;20276;-74
2023/08/02 01:45:00;;;;;;;37.95;20.92;;;;;;;22.22;66.51;94165.59;4951927;28;20654;-74
2023/08/02 01:47:26;;;;;;;41.30;19.40;;;;;;;22.14;67.18;94173.22;4964271;28;20760;-74
2023/08/02 01:49:51;;;;;;;29.58;15.45;;;;;;;22.29;67.62;94190.91;4965259;28;20233;-74
2023/08/02 01:52:17;;;;;;;24.30;13.25;;;;;;;22.31;67.32;94194.09;4959094;28;20209;-74
2023/08/02 01:54:43;;;;;;;17.10;10.23;;;;;;;22.25;67.46;94183.75;4959869;28;20548;-74
2023/08/02 01:57:08;;;;;;;13.82;8.63;;;;;;;21.98;67.42;94161.22;4956652;28;20202;-73
2023/08/02 01:59:35;;;;;;;18.67;8.40;;;;;;;22.14;67.37;94180.50;4959441;28;20545;-74
2023/08/02 02:02:00;;;;;;;5.70;4.72;;;;;;;22.12;66.90;94180.00;4956766;28;20924;-74
2023/08/02 02:04:26;;;;;;;10.55;5.68;;;;;;;22.20;66.34;94190.03;4956069;28;20178;-74
2023/08/02 02:06:51;;;;;;;15.93;9.48;;;;;;;22.17;67.64;94188.72;4954358;28;20213;-74
2023/08/02 02:09:17;;;;;;;18.90;10.65;;;;;;;22.12;67.98;94186.16;4955746;28;20571;-74
2023/08/02 02:11:42;;;;;;;19.02;10.98;;;;;;;21.96;67.92;94168.78;4971074;28;20256;-74
2023/08/02 02:14:09;;;;;;;28.17;15.40;;;;;;;22.05;67.50;94188.47;4965181;28;20174;-74
2023/08/02 02:16:34;;;;;;;21.85;12.60;;;;;;;22.11;67.97;94197.19;4965931;28;20548;-74
2023/08/02 02:19:00;;;;;;;18.23;10.20;;;;;;;22.10;67.92;94204.44;4965756;28;20174;-74
2023/08/02 02:21:25;;;;;;;21.40;10.50;;;;;;;22.02;68.16;94198.97;4962281;28;20184;-74
2023/08/02 02:23:51;;;;;;;16.88;10.02;;;;;;;21.92;68.41;94186.53;4958191;28;20273;-74
2023/08/02 02:26:16;;;;;;;13.70;8.25;;;;;;;21.90;68.58;94188.69;4963680;28;20625;-74
2023/08/02 02:28:42;;;;;;;19.00;8.52;;;;;;;21.86;68.60;94200.34;4950112;28;20174;-74
2023/08/02 02:31:07;;;;;;;16.35;8.68;;;;;;;21.72;68.89;94181.53;4967549;28;20170;-73
2023/08/02 02:33:33;;;;;;;14.65;7.10;;;;;;;21.78;68.98;94185.75;4954610;28;20167;-74
2023/08/02 02:35:58;;;;;;;13.45;6.65;;;;;;;21.86;68.72;94203.00;4952435;28;20225;-74
2023/08/02 02:38:24;;;;;;;14.32;6.28;;;;;;;21.64;68.82;94190.28;4964976;28;20333;-74
2023/08/02 02:40:49;;;;;;;10.15;6.22;;;;;;;21.75;69.04;94205.09;4959952;28;20224;-74
2023/08/02 02:43:15;;;;;;;7.95;6.25;;;;;;;21.86;69.53;94221.78;4969318;28;20177;-74
2023/08/02 02:45:40;;;;;;;11.77;5.82;;;;;;;21.78;69.40;94210.66;4959696;28;20194;-74
2023/08/02 02:48:06;;;;;;;11.65;5.32;;;;;;;21.92;69.00;94221.38;4967519;28;20191;-74
2023/08/02 02:50:31;;;;;;;12.35;5.20;;;;;;;21.64;68.71;94180.34;4974156;28;20227;-74
2023/08/02 02:52:58;;;;;;;8.80;4.97;;;;;;;21.40;68.38;94136.88;4950956;28;20269;-74
2023/08/02 02:55:23;;;;;;;13.05;4.65;;;;;;;22.01;68.71;94230.34;4954723;28;20226;-74
2023/08/02 02:57:50;;;;;;;7.25;4.25;;;;;;;21.80;67.75;94196.94;4940432;29;20187;-74
2023/08/02 03:00:16;;;;;;;7.30;4.55;;;;;;;21.94;67.72;94229.13;4968747;28;20182;-74
2023/08/02 03:02:42;;;;;;;8.80;4.20;;;;;;;21.83;67.76;94213.22;4973708;28;20269;-74
2023/08/02 03:05:08;;;;;;;6.32;4.13;;;;;;;21.91;68.05;94225.16;4943088;28;20185;-74
2023/08/02 03:07:33;;;;;;;7.85;4.15;;;;;;;21.69;67.57;94191.00;4951949;28;20206;-74
2023/08/02 03:09:59;;;;;;;4.72;3.85;;;;;;;21.68;67.96;94220.75;4973298;28;20202;-74
2023/08/02 03:12:24;;;;;;;8.88;3.70;;;;;;;21.83;68.52;94239.22;4973483;28;20183;-74
2023/08/02 03:14:50;;;;;;;6.28;4.35;;;;;;;21.92;68.43;94242.03;4948074;28;20178;-74
2023/08/02 03:17:15;;;;;;;9.40;3.88;;;;;;;21.98;68.22;94247.00;4952234;28;20185;-74
2023/08/02 03:19:41;;;;;;;6.10;3.97;;;;;;;21.65;67.78;94194.53;4971396;28;20182;-74
2023/08/02 03:22:09;;;;;;;9.68;4.20;;;;;;;21.81;68.07;94220.75;4958183;28;20174;-74
2023/08/02 03:24:34;;;;;;;5.68;4.45;;;;;;;21.78;67.79;94215.22;4973535;28;20193;-74
2023/08/02 03:27:00;;;;;;;9.10;4.68;;;;;;;21.59;68.02;94182.34;4945365;28;20225;-73
2023/08/02 03:29:25;;;;;;;6.13;4.50;;;;;;;22.02;68.19;94247.22;4966828;28;20690;-73
2023/08/02 03:31:51;;;;;;;7.07;4.68;;;;;;;21.98;68.20;94235.50;4966304;28;20169;-73
2023/08/02 03:34:16;;;;;;;10.02;4.60;;;;;;;21.97;67.97;94232.00;4973477;28;20235;-74
2023/08/02 03:36:45;;;;;;;5.35;4.10;;;;;;;21.86;67.96;94227.94;4965526;28;20593;-73
2023/08/02 03:39:11;;;;;;;8.23;4.80;;;;;;;21.90;68.05;94226.22;4970060;28;20225;-74
2023/08/02 03:41:37;;;;;;;10.18;5.15;;;;;;;21.49;68.14;94161.88;4955700;28;20179;-73
2023/08/02 03:44:03;;;;;;;8.98;4.78;;;;;;;21.98;68.09;94241.66;4959699;28;20198;-73
2023/08/02 03:46:29;;;;;;;6.97;4.90;;;;;;;22.01;68.55;94243.75;4953509;28;20197;-74
2023/08/02 03:48:54;;;;;;;10.60;5.07;;;;;;;22.11;68.27;94251.59;4972795;28;20218;-73
2023/08/02 03:51:20;;;;;;;18.85;5.25;;;;;;;22.08;68.27;94251.41;4972783;28;20174;-73
2023/08/02 03:53:46;;;;;;;16.20;5.50;;;;;;;21.85;68.55;94234.38;4972729;28;20253;-73
2023/08/02 03:56:11;;;;;;;8.48;5.28;;;;;;;21.54;68.60;94193.94;4972518;28;20649;-73
2023/08/02 03:58:37;;;;;;;9.35;4.60;;;;;;;21.87;68.93;94234.09;4955852;28;20189;-73
2023/08/02 04:01:02;;;;;;;9.82;4.78;;;;;;;21.86;69.54;94232.50;4959619;28;20198;-74
2023/08/02 04:03:30;;;;;;;11.55;5.13;;;;;;;22.14;69.46;94260.94;4936223;28;20680;-73
2023/08/02 04:05:56;;;;;;;12.27;6.85;;;;;;;22.02;68.70;94234.63;4953076;28;20202;-73
2023/08/02 04:08:21;;;;;;;20.38;9.35;;;;;;;21.95;68.60;94226.16;4953400;28;20237;-73
2023/08/02 04:10:47;;;;;;;30.80;15.73;;;;;;;22.19;69.16;94261.63;4935743;29;20186;-73
2023/08/02 04:13:12;;;;;;;15.95;9.07;;;;;;;22.26;68.90;94266.59;4952618;28;20175;-73
2023/08/02 04:15:38;;;;;;;16.90;8.13;;;;;;;22.00;69.00;94215.34;4952474;28;20178;-73
2023/08/02 04:18:03;;;;;;;15.48;6.28;;;;;;;22.26;68.46;94244.34;4963948;28;20186;-73
2023/08/02 04:20:30;;;;;;;19.30;11.20;;;;;;;22.38;67.42;94258.06;4963661;28;20945;-73
2023/08/02 04:22:55;;;;;;;31.17;19.23;;;;;;;22.27;67.90;94229.84;4949214;28;20207;-73
2023/08/02 04:25:21;;;;;;;13.60;8.68;;;;;;;22.22;67.83;94216.56;4939922;28;20680;-73
2023/08/02 04:27:47;;;;;;;20.20;7.95;;;;;;;22.33;67.45;94218.72;4969383;28;20540;-71
2023/08/02 04:30:12;;;;;;;22.90;9.32;;;;;;;22.62;67.33;94245.22;4971990;28;20174;-73
2023/08/02 04:32:38;;;;;;;20.70;8.27;;;;;;;22.72;66.58;94252.25;4955264;28;20185;-74
2023/08/02 04:35:03;;;;;;;14.55;6.85;;;;;;;22.94;67.29;94258.47;4952516;28;20625;-72
2023/08/02 04:37:29;;;;;;;16.75;7.53;;;;;;;22.69;67.07;94165.09;4960423;28;20245;-72
2023/08/02 04:39:55;;;;;;;19.17;7.07;;;;;;;22.82;65.63;94185.75;4952441;28;20645;-72
2023/08/02 04:42:20;;;;;;;14.77;6.65;;;;;;;23.25;65.69;94236.31;4952545;29;20179;-73
2023/08/02 04:44:46;;;;;;;14.13;7.30;;;;;;;23.15;65.09;94223.91;4970171;28;20562;-72
2023/08/02 04:47:11;;;;;;;19.63;11.55;;;;;;;23.22;64.03;94236.91;4962968;28;20685;-73
2023/08/02 04:49:37;;;;;;;19.45;11.80;;;;;;;23.48;64.39;94256.69;4943577;28;20222;-72
2023/08/02 04:52:02;;;;;;;29.52;14.13;;;;;;;23.52;63.69;94255.03;4952615;28;20257;-72
2023/08/02 04:54:28;;;;;;;15.73;6.60;;;;;;;23.63;64.86;94269.00;4952527;28;20185;-72
2023/08/02 04:56:54;;;;;;;24.20;13.43;;;;;;;23.51;65.40;94250.75;4952548;28;20249;-73
2023/08/02 04:59:19;;;;;;;33.72;18.77;;;;;;;23.62;64.17;94278.94;4952493;28;20988;-72
2023/08/02 05:01:45;;;;;;;42.25;25.95;;;;;;;23.58;63.77;94261.84;4952348;28;20195;-72
2023/08/02 05:04:11;;;;;;;24.20;16.13;;;;;;;23.55;63.87;94261.66;4959447;28;20174;-73
2023/08/02 05:06:39;;;;;;;16.58;7.80;;;;;;;23.63;64.00;94258.25;4970086;28;20190;-72
2023/08/02 05:09:04;;;;;;;15.20;5.35;;;;;;;23.59;62.73;94258.06;4951959;28;20277;-72
2023/08/02 05:11:33;;;;;;;7.18;5.05;;;;;;;23.55;63.32;94243.66;4968406;28;20280;-72
2023/08/02 05:13:59;;;;;;;6.60;4.55;;;;;;;23.54;62.11;94247.44;4971106;28;20177;-73
2023/08/02 05:16:26;;;;;;;17.73;9.35;;;;;;;23.39;62.86;94233.56;4954303;28;20193;-72
2023/08/02 05:18:52;;;;;;;11.30;6.00;;;;;;;23.77;63.73;94285.84;4951635;28;20190;-72
2023/08/02 05:21:19;;;;;;;13.05;6.60;;;;;;;23.88;63.72;94281.00;4961020;28;20188;-73
2023/08/02 05:23:45;;;;;;;11.05;6.93;;;;;;;23.99;63.40;94282.34;4951300;28;20285;-73
2023/08/02 05:26:10;;;;;;;19.85;7.60;;;;;;;23.78;62.58;94243.63;4958477;28;20710;-72
2023/08/02 05:28:37;;;;;;;14.32;8.30;;;;;;;23.98;62.83;94273.47;4954041;28;20188;-72
2023/08/02 05:31:03;;;;;;;12.30;7.93;;;;;;;24.06;62.66;94275.41;4956256;28;20207;-72
2023/08/02 05:33:29;;;;;;;8.20;5.65;;;;;;;24.14;60.59;94292.69;4955960;28;20541;-72
2023/08/02 05:35:54;;;;;;;11.80;7.10;;;;;;;24.03;61.20;94275.25;4966449;28;20237;-73
2023/08/02 05:38:20;;;;;;;19.23;9.23;;;;;;;24.37;61.55;94296.94;4950376;28;20182;-72
2023/08/02 05:40:46;;;;;;;11.70;7.90;;;;;;;24.81;60.73;94301.38;4950377;28;20649;-72
2023/08/02 05:43:11;;;;;;;10.88;6.38;;;;;;;25.24;58.62;94278.31;4961424;28;20205;-72
2023/08/02 05:45:37;;;;;;;14.43;8.02;;;;;;;25.82;57.06;94304.78;4963900;28;20322;-73
2023/08/02 05:48:03;;;;;;;17.67;9.75;;;;;;;25.98;56.49;94297.78;4957365;28;20277;-72
2023/08/02 05:50:29;;;;;;;17.02;9.98;;;;;;;26.17;54.67;94295.50;4955033;28;20241;-72
2023/08/02 05:52:54;;;;;;;14.43;7.43;;;;;;;26.85;53.70;94307.16;4950981;28;20224;-72
2023/08/02 05:55:20;;;;;;;8.85;6.40;;;;;;;27.47;51.92;94335.41;4951150;28;20243;-72
2023/08/02 05:57:48;;;;;;;15.60;9.27;;;;;;;27.69;51.24;94325.06;4944905;28;20633;-72
2023/08/02 06:00:14;;;;;;;12.18;6.25;;;;;;;28.54;48.41;94313.72;4941916;28;20653;-73
2023/08/02 06:02:39;;;;;;;15.45;6.30;;;;;;;29.16;46.97;94309.88;4956815;28;20194;-72
2023/08/02 06:05:05;;;;;;;10.90;6.07;;;;;;;29.60;46.13;94322.47;4958465;28;20175;-73
2023/08/02 06:07:31;;;;;;;22.52;11.57;;;;;;;30.47;44.86;94320.97;4958443;28;20198;-72
2023/08/02 06:09:56;;;;;;;11.93;7.00;;;;;;;31.47;42.00;94311.38;4954092;28;20169;-72
2023/08/02 06:12:22;;;;;;;7.25;5.85;;;;;;;32.18;40.72;94334.66;4962535;28;20186;-73
2023/08/02 06:14:47;;;;;;;11.93;6.35;;;;;;;32.22;39.87;94298.16;4937016;28;20184;-73
2023/08/02 06:17:13;;;;;;;9.50;7.40;;;;;;;32.78;39.12;94348.63;4965369;28;20201;-73
2023/08/02 06:19:39;;;;;;;13.40;7.10;;;;;;;32.96;38.25;94334.09;4942929;28;20174;-72
2023/08/02 06:22:04;;;;;;;10.55;6.40;;;;;;;33.00;38.83;94338.84;4957775;28;20178;-73
2023/08/02 06:24:30;;;;;;;18.63;8.55;;;;;;;33.12;39.93;94352.31;4965972;28;20649;-73
2023/08/02 06:26:56;;;;;;;13.32;8.30;;;;;;;33.02;38.60;94348.25;4957048;28;20591;-75
2023/08/02 06:29:21;;;;;;;12.57;6.07;;;;;;;32.78;39.98;94313.19;4955542;28;20617;-75
2023/08/02 06:31:47;;;;;;;7.47;5.43;;;;;;;33.10;39.54;94335.50;4959995;28;20180;-75
2023/08/02 06:34:13;;;;;;;10.98;5.78;;;;;;;32.96;39.20;94325.13;4957871;28;20173;-75
2023/08/02 06:36:39;;;;;;;12.23;6.20;;;;;;;32.62;40.08;94321.44;4961043;28;20166;-75
2023/08/02 06:39:05;;;;;;;11.70;5.82;;;;;;;32.66;41.74;94327.75;4958511;28;20175;-75
2023/08/02 06:41:31;;;;;;;7.57;5.22;;;;;;;32.52;39.60;94314.63;4957815;28;20182;-75
2023/08/02 06:43:56;;;;;;;8.10;6.00;;;;;;;32.20;39.96;94324.97;4945952;28;20174;-76
2023/08/02 06:46:22;;;;;;;11.38;5.95;;;;;;;31.54;42.04;94297.91;4964868;28;20201;-76
2023/08/02 06:48:48;;;;;;;7.70;6.22;;;;;;;31.55;42.98;94298.72;4966666;28;20193;-76
2023/08/02 06:51:13;;;;;;;8.68;5.88;;;;;;;31.33;41.25;94270.25;4962938;28;20185;-77
2023/08/02 06:53:39;;;;;;;14.63;6.22;;;;;;;31.53;42.63;94322.75;4953283;28;20182;-75
2023/08/02 06:56:16;;;;;;;11.60;6.50;;;;;;;31.23;42.80;94265.34;4969560;28;20181;-73
2023/08/02 06:58:43;;;;;;;10.43;6.07;;;;;;;31.61;42.67;94317.13;4974350;28;20224;-74
2023/08/02 07:01:22;;;;;;;11.82;6.53;;;;;;;31.71;43.15;94332.13;4973293;28;20182;-74
2023/08/02 07:03:50;;;;;;;8.77;6.30;;;;;;;31.76;42.62;94312.78;4937622;28;20350;-74
2023/08/02 07:06:18;;;;;;;7.97;5.57;;;;;;;32.06;42.31;94334.78;4961787;28;20280;-75
2023/08/02 07:08:45;;;;;;;7.85;5.93;;;;;;;32.04;40.84;94301.66;4954520;28;20217;-75
2023/08/02 07:11:11;;;;;;;9.77;5.95;;;;;;;31.96;42.30;94316.28;4955419;28;20314;-74
2023/08/02 07:13:37;;;;;;;9.13;5.70;;;;;;;32.13;42.13;94291.31;4963639;28;20237;-74
2023/08/02 07:16:04;;;;;;;8.73;6.63;;;;;;;32.36;40.95;94285.91;4963113;28;20181;-75
2023/08/02 07:18:30;;;;;;;11.27;6.05;;;;;;;32.72;41.06;94303.72;4948680;28;20189;-74
2023/08/02 07:20:56;;;;;;;7.75;5.68;;;;;;;32.98;39.99;94271.00;4960968;28;20181;-75
2023/08/02 07:23:22;;;;;;;11.52;6.60;;;;;;;32.90;39.72;94217.50;4964286;28;20174;-77
2023/08/02 07:25:48;;;;;;;12.93;5.47;;;;;;;32.78;39.22;94264.09;4960983;28;20286;-75
2023/08/02 07:28:14;;;;;;;9.98;5.70;;;;;;;32.43;39.68;94226.91;4962485;28;20167;-75
2023/08/02 07:30:39;;;;;;;7.30;6.50;;;;;;;32.99;40.48;94256.22;4960911;28;20665;-74
2023/08/02 07:33:05;;;;;;;9.77;6.05;;;;;;;32.67;38.58;94231.16;4966650;28;20170;-74
2023/08/02 07:35:35;;;;;;;10.25;6.80;;;;;;;32.68;39.96;94231.94;4976264;28;20236;-78
2023/08/02 07:38:00;;;;;;;10.52;5.82;;;;;;;33.02;39.64;94285.50;4963588;28;20179;-75
2023/08/02 07:40:26;;;;;;;8.88;6.43;;;;;;;33.17;39.35;94286.47;4964823;28;20182;-74
2023/08/02 07:42:51;;;;;;;10.85;6.18;;;;;;;33.90;39.84;94342.53;4958441;28;20265;-74
2023/08/02 07:45:17;;;;;;;13.18;6.38;;;;;;;34.19;38.67;94319.84;4938972;29;20273;-74
2023/08/02 07:47:43;;;;;;;10.65;5.78;;;;;;;34.35;38.37;94330.56;4958678;28;20286;-75
2023/08/02 07:50:09;;;;;;;11.18;7.22;;;;;;;34.60;38.11;94334.34;4950821;28;20991;-76
2023/08/02 07:52:35;;;;;;;10.57;6.47;;;;;;;34.71;37.94;94307.09;4966823;28;20181;-75
2023/08/02 07:55:00;;;;;;;9.25;6.10;;;;;;;35.08;36.58;94337.94;4962331;28;20175;-75
2023/08/02 07:57:30;;;;;;;7.57;5.97;;;;;;;35.20;36.67;94342.34;4956887;28;20169;-75
2023/08/02 07:59:57;;;;;;;9.65;7.63;;;;;;;34.85;36.05;94246.28;4970182;28;20212;-75
2023/08/02 08:02:25;;;;;;;8.43;6.15;;;;;;;35.45;37.06;94307.72;4960069;28;20954;-75
2023/08/02 08:04:52;;;;;;;10.68;6.22;;;;;;;35.62;36.54;94319.94;4961883;28;20198;-75
2023/08/02 08:07:17;;;;;;;10.27;6.30;;;;;;;35.20;36.31;94247.28;4972323;28;20194;-75
2023/08/02 08:09:43;;;;;;;13.52;6.00;;;;;;;35.43;36.07;94277.19;4971802;28;20233;-75
2023/08/02 08:12:09;;;;;;;9.90;5.75;;;;;;;35.23;34.79;94253.16;4971256;28;20177;-75
2023/08/02 08:14:34;;;;;;;10.07;6.20;;;;;;;35.78;35.88;94325.13;4953711;28;20179;-75
2023/08/02 08:17:01;;;;;;;6.78;5.85;;;;;;;35.85;35.33;94284.06;4968942;28;20205;-75
2023/08/02 08:19:29;;;;;;;10.65;5.60;;;;;;;35.48;35.38;94230.25;4955830;28;20171;-75
2023/08/02 08:21:55;;;;;;;11.75;5.55;;;;;;;35.95;35.06;94280.56;4952390;28;20193;-75
2023/08/02 08:24:20;;;;;;;9.95;6.80;;;;;;;35.91;35.29;94253.16;4956687;28;20586;-75
2023/08/02 08:26:46;;;;;;;6.85;5.65;;;;;;;36.19;33.98;94284.56;4954602;28;20194;-75
2023/08/02 08:29:13;;;;;;;5.95;5.00;;;;;;;35.95;33.10;94272.34;4970672;28;20193;-75
2023/08/02 08:31:38;;;;;;;7.93;4.60;;;;;;;36.12;33.85;94310.00;4963327;28;20186;-75
2023/08/02 08:34:07;;;;;;;9.32;5.13;;;;;;;35.45;33.93;94257.63;4952204;28;20611;-75
2023/08/02 08:36:33;;;;;;;9.45;5.65;;;;;;;35.98;34.96;94325.63;4954142;28;20186;-75
2023/08/02 08:38:58;;;;;;;6.57;5.05;;;;;;;36.08;33.91;94322.91;4953422;28;20185;-75
2023/08/02 08:41:24;;;;;;;8.13;5.78;;;;;;;36.09;34.44;94329.97;4951345;28;20601;-75
2023/08/02 08:43:49;;;;;;;9.07;7.13;;;;;;;36.00;33.21;94315.03;4952009;28;20617;-76
2023/08/02 08:46:15;;;;;;;7.47;5.93;;;;;;;35.99;33.23;94327.16;4952032;28;20198;-75
2023/08/02 08:48:41;;;;;;;8.23;5.88;;;;;;;35.55;33.55;94326.16;4962869;28;20178;-76
2023/08/02 08:51:09;;;;;;;7.45;5.13;;;;;;;35.18;34.26;94325.50;4951939;28;20261;-75
2023/08/02 08:53:36;;;;;;;6.97;5.72;;;;;;;34.80;34.65;94316.59;4952274;28;20266;-75
2023/08/02 08:56:04;;;;;;;9.65;5.75;;;;;;;34.52;35.71;94324.50;4934539;28;20189;-75
2023/08/02 08:58:34;;;;;;;11.88;5.68;;;;;;;34.53;36.88;94315.13;4967539;28;20638;-75
2023/08/02 09:01:03;;;;;;;17.58;6.97;;;;;;;34.46;37.87;94312.34;4970897;28;20197;-75
2023/08/02 09:03:35;;;;;;;6.05;3.97;;;;;;;34.84;33.18;94313.13;5068130;27;20551;-74
2023/08/02 09:06:03;;;;;;;6.25;4.18;;;;;;;35.15;31.99;94310.63;5084538;28;20166;-74
2023/08/02 09:08:29;;;;;;;146.18;17.23;;;;;;;35.11;30.11;94311.78;5085658;28;20178;-74
2023/08/02 09:10:55;;;;;;;11.45;4.65;;;;;;;34.66;31.71;94308.25;5085777;28;20227;-74
2023/08/02 09:13:26;;;;;;;6.88;5.93;;;;;;;34.37;32.42;94303.66;5085322;28;20194;-74
2023/08/02 09:16:12;;;;;;;7.13;3.70;;;;;;;33.68;30.58;94309.44;5085521;28;20521;-74
2023/08/02 09:18:42;;;;;;;5.68;4.30;;;;;;;33.61;35.18;94311.31;5085550;28;20249;-74
2023/08/02 09:21:10;;;;;;;10.18;4.85;;;;;;;34.02;36.75;94306.75;5085751;28;20207;-74
2023/08/02 09:23:37;;;;;;;5.88;4.32;;;;;;;34.30;36.10;94303.59;5086451;28;20176;-74
2023/08/02 09:26:10;;;;;;;6.63;5.75;;;;;;;34.52;35.59;94305.34;5085938;28;20282;-74
2023/08/02 09:28:36;;;;;;;7.82;5.20;;;;;;;34.72;35.21;94309.47;5077086;28;20181;-74
2023/08/02 09:31:15;;;;;;;6.70;4.72;;;;;;;34.55;33.93;94298.34;5075776;28;20170;-74
2023/08/02 09:33:49;;;;;;;10.75;4.93;;;;;;;34.67;34.97;94298.09;5086288;28;20173;-74
2023/08/02 09:36:41;;;;;;;6.05;4.95;;;;;;;34.45;34.46;94297.88;5085796;28;20178;-74
2023/08/02 09:39:15;;;;;;;5.18;4.68;;;;;;;34.40;34.14;94302.91;5074112;28;20254;-75
2023/08/02 09:41:41;;;;;;;4.93;4.10;;;;;;;34.43;34.39;94299.41;5066412;28;20183;-74
2023/08/02 09:44:07;;;;;;;5.22;4.38;;;;;;;34.34;33.31;94307.13;5070336;28;20336;-74
2023/08/02 09:46:34;;;;;;;4.47;4.05;;;;;;;34.40;34.53;94302.91;5068633;28;20661;-74
2023/08/02 09:49:01;;;;;;;9.32;4.70;;;;;;;34.44;32.35;94299.03;5069097;28;20649;-75
2023/08/02 09:51:40;;;;;;;10.75;4.07;;;;;;;34.41;33.08;94301.75;5077017;28;20170;-75
2023/08/02 09:54:06;;;;;;;9.60;4.03;;;;;;;34.01;33.91;94302.44;5072025;28;20173;-75
2023/08/02 09:56:35;;;;;;;7.32;4.13;;;;;;;33.78;33.08;94308.03;5069026;28;20599;-75
2023/08/02 09:59:01;;;;;;;7.95;3.88;;;;;;;33.72;35.28;94302.09;5068488;28;20186;-75
2023/08/02 10:01:28;;;;;;;5.00;3.95;;;;;;;33.87;34.92;94308.56;5071463;28;20178;-75
2023/08/02 10:03:57;;;;;;;6.47;3.88;;;;;;;33.98;33.48;94295.81;5070828;28;20169;-76
2023/08/02 10:06:31;;;;;;;12.68;4.75;;;;;;;33.94;33.99;94296.91;5074157;28;20245;-74
2023/08/02 10:09:07;;;;;;;5.15;4.65;;;;;;;33.72;33.64;94307.56;5069358;28;20645;-75
2023/08/02 10:11:45;;;;;;;10.50;4.60;;;;;;;33.50;33.98;94307.63;5070986;28;20301;-74
2023/08/02 10:14:12;;;;;;;5.57;4.38;;;;;;;33.36;35.11;94288.34;5062723;28;20178;-75
2023/08/02 10:16:40;;;;;;;6.57;3.80;;;;;;;33.48;35.11;94305.28;5056589;28;20183;-75
2023/08/02 10:19:06;;;;;;;8.40;3.92;;;;;;;33.41;34.20;94294.25;5059334;28;20179;-73
2023/08/02 10:21:35;;;;;;;5.13;3.97;;;;;;;33.50;34.97;94286.59;5064018;28;20252;-74
2023/08/02 10:24:02;;;;;;;5.95;3.80;;;;;;;33.62;34.75;94285.56;5055925;28;20175;-75
2023/08/02 10:26:30;;;;;;;5.13;3.60;;;;;;;33.63;34.60;94273.50;5059461;28;20185;-74
2023/08/02 10:29:01;;;;;;;7.32;4.35;;;;;;;33.68;35.30;94287.59;5051970;28;20709;-76
2023/08/02 10:31:26;;;;;;;5.40;3.40;;;;;;;33.73;33.94;94281.06;5065092;28;20182;-74
2023/08/02 10:33:52;;;;;;;7.22;3.75;;;;;;;33.73;34.43;94264.69;5050942;28;20616;-74
2023/08/02 10:36:18;;;;;;;5.25;3.90;;;;;;;33.59;32.48;94257.06;5064003;28;20170;-76
2023/08/02 10:38:43;;;;;;;6.88;3.67;;;;;;;33.56;33.50;94276.91;5057178;28;20626;-76
2023/08/02 10:41:10;;;;;;;6.80;3.67;;;;;;;33.39;33.82;94265.75;5053976;28;20175;-73
2023/08/02 10:43:54;;;;;;;5.32;3.78;;;;;;;33.30;32.15;94282.41;5060064;28;20171;-73
2023/08/02 10:46:27;;;;;;;8.63;3.72;;;;;;;33.19;33.11;94281.44;5058071;28;20558;-74
2023/08/02 10:49:13;;;;;;;4.45;3.35;;;;;;;33.03;34.53;94289.00;5050312;28;20274;-74
2023/08/02 10:51:38;;;;;;;5.50;3.10;;;;;;;32.90;33.44;94280.22;5058974;28;20265;-75
2023/08/02 10:54:21;;;;;;;4.85;3.40;;;;;;;32.80;35.25;94278.13;5057725;28;20273;-75
2023/08/02 10:56:58;;;;;;;6.57;4.25;;;;;;;32.90;35.16;94289.22;5050696;28;20183;-74
2023/08/02 10:59:23;;;;;;;4.18;3.78;;;;;;;32.97;35.18;94278.41;5067288;28;20170;-74
2023/08/02 11:02:07;;;;;;;9.30;3.65;;;;;;;33.02;35.38;94284.72;5066813;28;20226;-75
2023/08/02 11:04:34;;;;;;;5.07;4.05;;;;;;;32.91;34.51;94257.25;5058500;28;20181;-74
2023/08/02 11:07:22;;;;;;;6.95;3.90;;;;;;;32.98;34.47;94276.47;5071536;28;20204;-74
2023/08/02 11:09:54;;;;;;;3.50;3.20;;;;;;;32.91;33.05;94260.78;5065924;28;20190;-74
2023/08/02 11:12:21;;;;;;;7.80;3.75;;;;;;;32.79;33.18;94260.19;5051629;28;20178;-74
2023/08/02 11:14:50;;;;;;;6.82;3.78;;;;;;;32.91;35.02;94282.59;5052790;28;20178;-73
2023/08/02 11:17:17;;;;;;;4.97;4.00;;;;;;;32.88;34.59;94271.63;5065214;28;20282;-75
2023/08/02 11:19:51;;;;;;;8.90;4.18;;;;;;;33.00;34.66;94276.88;5055858;28;20213;-75
2023/08/02 11:22:18;;;;;;;4.18;3.22;;;;;;;33.05;33.76;94273.81;5062332;28;20201;-74
2023/08/02 11:24:46;;;;;;;5.78;3.35;;;;;;;33.02;33.40;94271.06;5070382;28;20613;-75
2023/08/02 11:27:22;;;;;;;4.45;3.38;;;;;;;33.06;32.82;94264.50;5057699;28;20175;-74
2023/08/02 11:30:07;;;;;;;5.47;3.60;;;;;;;33.10;32.93;94265.34;5053950;28;20210;-75